Northborough, Massachusetts
Current Conditions -  °F | °C
As of 6:54 PM on Monday 20 Oct 2014 (Local Time) from KORH Reporting Station
Few Clouds Few Clouds  
Wind Chill: 42°   Ceiling: Unl
Heat Index: 46°   Visibility: 10mi
Dew Point: 35°   Wind: 7mph
Humidity: 66%   Direction: 230°SW
Pressure: 29.97"   Gusts: NA
Location:  42.32°N, 71.64°W
Report Text: KORH 202254Z 23006KT 10SM FEW110 08/02 A2997 RMK AO2 SLP159 T00780017
Loading
Personal Weather Stations






























Interactive Weather Map New forecast layout! Learn more

10-Day Weather Forecast

Advertisements
Track Severe Weather on mobile